sensor_id;sensor_type;location;lat;lon;timestamp;temperature;humidity
47765;DHT22;33529;49.242;8.670;2023-03-19T00:00:28;9.40;99.90
47765;DHT22;33529;49.242;8.670;2023-03-19T00:02:55;9.30;99.90
47765;DHT22;33529;49.242;8.670;2023-03-19T00:05:22;9.30;99.90
47765;DHT22;33529;49.242;8.670;2023-03-19T00:07:49;9.20;99.90
47765;DHT22;33529;49.242;8.670;2023-03-19T00:10:16;9.20;99.90
47765;DHT22;33529;49.242;8.670;2023-03-19T00:12:44;9.10;99.90
47765;DHT22;33529;49.242;8.670;2023-03-19T00:15:11;9.00;99.90
47765;DHT22;33529;49.242;8.670;2023-03-19T00:17:41;9.10;99.90
47765;DHT22;33529;49.242;8.670;2023-03-19T00:20:10;9.10;99.90
47765;DHT22;33529;49.242;8.670;2023-03-19T00:22:37;9.20;99.90
47765;DHT22;33529;49.242;8.670;2023-03-19T00:25:06;9.20;99.90
47765;DHT22;33529;49.242;8.670;2023-03-19T00:27:34;9.20;99.90
47765;DHT22;33529;49.242;8.670;2023-03-19T00:30:03;9.30;99.90
47765;DHT22;33529;49.242;8.670;2023-03-19T00:32:30;9.50;99.90
47765;DHT22;33529;49.242;8.670;2023-03-19T00:34:59;9.60;99.90
47765;DHT22;33529;49.242;8.670;2023-03-19T00:37:26;9.80;99.90
47765;DHT22;33529;49.242;8.670;2023-03-19T00:39:54;9.90;99.90
47765;DHT22;33529;49.242;8.670;2023-03-19T00:42:21;10.00;99.90
47765;DHT22;33529;49.242;8.670;2023-03-19T00:44:48;9.90;99.90
47765;DHT22;33529;49.242;8.670;2023-03-19T00:47:15;9.90;99.90
47765;DHT22;33529;49.242;8.670;2023-03-19T00:49:42;9.90;99.90
47765;DHT22;33529;49.242;8.670;2023-03-19T00:52:09;9.90;99.90
47765;DHT22;33529;49.242;8.670;2023-03-19T00:54:36;9.80;99.90
47765;DHT22;33529;49.242;8.670;2023-03-19T00:57:03;9.80;99.90
47765;DHT22;33529;49.242;8.670;2023-03-19T00:59:31;9.70;99.90
47765;DHT22;33529;49.242;8.670;2023-03-19T01:01:57;9.60;99.90
47765;DHT22;33529;49.242;8.670;2023-03-19T01:04:25;9.60;99.90
47765;DHT22;33529;49.242;8.670;2023-03-19T01:06:52;9.50;99.90
47765;DHT22;33529;49.242;8.670;2023-03-19T01:09:18;9.60;99.90
47765;DHT22;33529;49.242;8.670;2023-03-19T01:11:45;9.60;99.90
47765;DHT22;33529;49.242;8.670;2023-03-19T01:14:14;9.40;99.90
47765;DHT22;33529;49.242;8.670;2023-03-19T01:16:42;9.40;99.90
47765;DHT22;33529;49.242;8.670;2023-03-19T01:19:09;9.30;99.90
47765;DHT22;33529;49.242;8.670;2023-03-19T01:21:36;9.30;99.90
47765;DHT22;33529;49.242;8.670;2023-03-19T01:24:03;9.30;99.90
47765;DHT22;33529;49.242;8.670;2023-03-19T01:26:30;9.20;99.90
47765;DHT22;33529;49.242;8.670;2023-03-19T01:29:09;9.30;99.90
47765;DHT22;33529;49.242;8.670;2023-03-19T01:31:36;9.20;99.90
47765;DHT22;33529;49.242;8.670;2023-03-19T01:34:23;9.20;99.90
47765;DHT22;33529;49.242;8.670;2023-03-19T01:36:53;9.20;99.90
47765;DHT22;33529;49.242;8.670;2023-03-19T01:39:27;9.20;99.90
47765;DHT22;33529;49.242;8.670;2023-03-19T01:41:54;9.20;99.90
47765;DHT22;33529;49.242;8.670;2023-03-19T01:44:34;9.10;99.90
47765;DHT22;33529;49.242;8.670;2023-03-19T01:47:31;9.10;99.90
47765;DHT22;33529;49.242;8.670;2023-03-19T01:50:24;9.00;99.90
47765;DHT22;33529;49.242;8.670;2023-03-19T01:53:15;8.90;99.90
47765;DHT22;33529;49.242;8.670;2023-03-19T01:56:08;9.00;99.90
47765;DHT22;33529;49.242;8.670;2023-03-19T01:58:45;9.00;99.90
47765;DHT22;33529;49.242;8.670;2023-03-19T02:02:02;8.90;99.90
47765;DHT22;33529;49.242;8.670;2023-03-19T02:04:33;8.90;99.90
47765;DHT22;33529;49.242;8.670;2023-03-19T02:07:01;8.90;99.90
47765;DHT22;33529;49.242;8.670;2023-03-19T02:09:29;8.90;99.90
47765;DHT22;33529;49.242;8.670;2023-03-19T02:11:56;9.00;99.90
47765;DHT22;33529;49.242;8.670;2023-03-19T02:14:23;9.00;99.90
47765;DHT22;33529;49.242;8.670;2023-03-19T02:16:50;9.00;99.90
47765;DHT22;33529;49.242;8.670;2023-03-19T02:22:08;9.00;99.90
47765;DHT22;33529;49.242;8.670;2023-03-19T02:24:48;9.00;99.90
47765;DHT22;33529;49.242;8.670;2023-03-19T02:27:18;9.00;99.90
47765;DHT22;33529;49.242;8.670;2023-03-19T02:29:47;9.10;99.90
47765;DHT22;33529;49.242;8.670;2023-03-19T02:32:15;9.10;99.90
47765;DHT22;33529;49.242;8.670;2023-03-19T02:34:43;9.10;99.90
47765;DHT22;33529;49.242;8.670;2023-03-19T02:37:27;9.20;99.90
47765;DHT22;33529;49.242;8.670;2023-03-19T02:40:11;9.30;99.90
47765;DHT22;33529;49.242;8.670;2023-03-19T02:42:39;9.30;99.90
47765;DHT22;33529;49.242;8.670;2023-03-19T02:45:06;9.40;99.90
47765;DHT22;33529;49.242;8.670;2023-03-19T02:47:34;9.40;99.90
47765;DHT22;33529;49.242;8.670;2023-03-19T02:50:01;9.40;99.90
47765;DHT22;33529;49.242;8.670;2023-03-19T02:52:28;9.40;99.90
47765;DHT22;33529;49.242;8.670;2023-03-19T02:54:54;9.40;99.90
47765;DHT22;33529;49.242;8.670;2023-03-19T02:57:23;9.40;99.90
47765;DHT22;33529;49.242;8.670;2023-03-19T02:59:50;9.40;99.90
47765;DHT22;33529;49.242;8.670;2023-03-19T03:02:17;9.40;99.90
47765;DHT22;33529;49.242;8.670;2023-03-19T03:04:46;9.50;99.90
47765;DHT22;33529;49.242;8.670;2023-03-19T03:07:13;9.50;99.90
47765;DHT22;33529;49.242;8.670;2023-03-19T03:09:40;9.50;99.90
47765;DHT22;33529;49.242;8.670;2023-03-19T03:12:08;9.50;99.90
47765;DHT22;33529;49.242;8.670;2023-03-19T03:14:35;9.50;99.90
47765;DHT22;33529;49.242;8.670;2023-03-19T03:17:02;9.50;99.90
47765;DHT22;33529;49.242;8.670;2023-03-19T03:19:28;9.60;99.90
47765;DHT22;33529;49.242;8.670;2023-03-19T03:21:56;9.60;99.90
47765;DHT22;33529;49.242;8.670;2023-03-19T03:24:23;9.60;99.90
47765;DHT22;33529;49.242;8.670;2023-03-19T03:26:50;9.60;99.90
47765;DHT22;33529;49.242;8.670;2023-03-19T03:29:18;9.70;99.90
47765;DHT22;33529;49.242;8.670;2023-03-19T03:31:46;9.70;99.90
47765;DHT22;33529;49.242;8.670;2023-03-19T03:34:12;9.60;99.90
47765;DHT22;33529;49.242;8.670;2023-03-19T03:36:40;9.70;99.90
47765;DHT22;33529;49.242;8.670;2023-03-19T03:39:07;9.60;99.90
47765;DHT22;33529;49.242;8.670;2023-03-19T03:41:34;9.70;99.90
47765;DHT22;33529;49.242;8.670;2023-03-19T03:44:01;9.80;99.90
47765;DHT22;33529;49.242;8.670;2023-03-19T03:46:31;9.80;99.90
47765;DHT22;33529;49.242;8.670;2023-03-19T03:48:59;9.80;99.90
47765;DHT22;33529;49.242;8.670;2023-03-19T03:51:26;9.80;99.90
47765;DHT22;33529;49.242;8.670;2023-03-19T03:53:53;9.90;99.90
47765;DHT22;33529;49.242;8.670;2023-03-19T03:56:20;9.90;99.90
47765;DHT22;33529;49.242;8.670;2023-03-19T03:58:46;9.90;99.90
47765;DHT22;33529;49.242;8.670;2023-03-19T04:01:17;9.90;99.90
47765;DHT22;33529;49.242;8.670;2023-03-19T04:03:49;10.00;99.90
47765;DHT22;33529;49.242;8.670;2023-03-19T04:06:17;9.90;99.90
47765;DHT22;33529;49.242;8.670;2023-03-19T04:08:49;9.90;99.90
47765;DHT22;33529;49.242;8.670;2023-03-19T04:11:18;9.90;99.90
47765;DHT22;33529;49.242;8.670;2023-03-19T04:13:45;9.90;99.90
47765;DHT22;33529;49.242;8.670;2023-03-19T04:16:12;9.90;99.90
47765;DHT22;33529;49.242;8.670;2023-03-19T04:18:40;9.90;99.90
47765;DHT22;33529;49.242;8.670;2023-03-19T04:21:07;10.00;99.90
47765;DHT22;33529;49.242;8.670;2023-03-19T04:23:35;10.00;99.90
47765;DHT22;33529;49.242;8.670;2023-03-19T04:26:03;9.90;99.90
47765;DHT22;33529;49.242;8.670;2023-03-19T04:28:32;9.90;99.90
47765;DHT22;33529;49.242;8.670;2023-03-19T04:31:03;9.90;99.90
47765;DHT22;33529;49.242;8.670;2023-03-19T04:33:33;9.80;99.90
47765;DHT22;33529;49.242;8.670;2023-03-19T04:36:02;9.80;99.90
47765;DHT22;33529;49.242;8.670;2023-03-19T04:38:29;9.80;99.90
47765;DHT22;33529;49.242;8.670;2023-03-19T04:41:00;9.70;99.90
47765;DHT22;33529;49.242;8.670;2023-03-19T04:43:27;9.70;99.90
47765;DHT22;33529;49.242;8.670;2023-03-19T04:45:54;9.70;99.90
47765;DHT22;33529;49.242;8.670;2023-03-19T04:48:21;9.70;99.90
47765;DHT22;33529;49.242;8.670;2023-03-19T04:50:51;9.70;99.90
47765;DHT22;33529;49.242;8.670;2023-03-19T04:53:19;9.70;99.90
47765;DHT22;33529;49.242;8.670;2023-03-19T04:55:46;9.70;99.90
47765;DHT22;33529;49.242;8.670;2023-03-19T04:58:16;9.70;99.90
47765;DHT22;33529;49.242;8.670;2023-03-19T05:00:46;9.70;99.90
47765;DHT22;33529;49.242;8.670;2023-03-19T05:03:18;9.70;99.90
47765;DHT22;33529;49.242;8.670;2023-03-19T05:05:46;9.70;99.90
47765;DHT22;33529;49.242;8.670;2023-03-19T05:08:13;9.70;99.90
47765;DHT22;33529;49.242;8.670;2023-03-19T05:10:40;9.70;99.90
47765;DHT22;33529;49.242;8.670;2023-03-19T05:13:08;9.70;99.90
47765;DHT22;33529;49.242;8.670;2023-03-19T05:15:43;9.70;99.90
47765;DHT22;33529;49.242;8.670;2023-03-19T05:18:11;9.70;99.90
47765;DHT22;33529;49.242;8.670;2023-03-19T05:20:42;9.80;99.90
47765;DHT22;33529;49.242;8.670;2023-03-19T05:23:16;9.80;99.90
47765;DHT22;33529;49.242;8.670;2023-03-19T05:26:04;9.80;99.90
47765;DHT22;33529;49.242;8.670;2023-03-19T05:28:50;9.80;99.90
47765;DHT22;33529;49.242;8.670;2023-03-19T05:31:23;9.80;99.90
47765;DHT22;33529;49.242;8.670;2023-03-19T05:33:53;9.80;99.90
47765;DHT22;33529;49.242;8.670;2023-03-19T05:36:20;9.90;99.90
47765;DHT22;33529;49.242;8.670;2023-03-19T05:38:56;9.90;99.90
47765;DHT22;33529;49.242;8.670;2023-03-19T05:41:29;9.90;99.90
47765;DHT22;33529;49.242;8.670;2023-03-19T05:44:00;9.90;99.90
47765;DHT22;33529;49.242;8.670;2023-03-19T05:46:45;9.90;99.90
47765;DHT22;33529;49.242;8.670;2023-03-19T05:49:12;9.90;99.90
47765;DHT22;33529;49.242;8.670;2023-03-19T05:51:40;10.00;99.90
47765;DHT22;33529;49.242;8.670;2023-03-19T05:54:07;10.00;99.90
47765;DHT22;33529;49.242;8.670;2023-03-19T05:56:47;9.90;99.90
47765;DHT22;33529;49.242;8.670;2023-03-19T05:59:26;9.90;99.90
47765;DHT22;33529;49.242;8.670;2023-03-19T06:06:07;10.10;99.90
47765;DHT22;33529;49.242;8.670;2023-03-19T06:08:40;10.10;99.90
47765;DHT22;33529;49.242;8.670;2023-03-19T06:11:17;10.10;99.90
47765;DHT22;33529;49.242;8.670;2023-03-19T06:13:51;10.10;99.90
47765;DHT22;33529;49.242;8.670;2023-03-19T06:16:18;10.10;99.90
47765;DHT22;33529;49.242;8.670;2023-03-19T06:18:52;10.10;99.90
47765;DHT22;33529;49.242;8.670;2023-03-19T06:21:19;10.20;99.90
47765;DHT22;33529;49.242;8.670;2023-03-19T06:23:46;10.20;99.90
47765;DHT22;33529;49.242;8.670;2023-03-19T06:26:17;10.30;99.90
47765;DHT22;33529;49.242;8.670;2023-03-19T06:28:50;10.20;99.90
47765;DHT22;33529;49.242;8.670;2023-03-19T06:31:18;10.30;99.90
47765;DHT22;33529;49.242;8.670;2023-03-19T06:34:04;10.30;99.90
47765;DHT22;33529;49.242;8.670;2023-03-19T06:36:40;10.30;99.90
47765;DHT22;33529;49.242;8.670;2023-03-19T06:39:09;10.40;99.90
47765;DHT22;33529;49.242;8.670;2023-03-19T06:41:36;10.40;99.90
47765;DHT22;33529;49.242;8.670;2023-03-19T06:44:14;10.50;99.90
47765;DHT22;33529;49.242;8.670;2023-03-19T06:46:41;10.50;99.90
47765;DHT22;33529;49.242;8.670;2023-03-19T06:49:08;10.60;99.90
47765;DHT22;33529;49.242;8.670;2023-03-19T06:51:35;10.70;99.90
47765;DHT22;33529;49.242;8.670;2023-03-19T06:54:02;10.80;99.90
47765;DHT22;33529;49.242;8.670;2023-03-19T06:56:29;10.90;99.90
47765;DHT22;33529;49.242;8.670;2023-03-19T06:58:56;11.00;99.90
47765;DHT22;33529;49.242;8.670;2023-03-19T07:01:23;11.10;99.90
47765;DHT22;33529;49.242;8.670;2023-03-19T07:03:50;11.20;99.90
47765;DHT22;33529;49.242;8.670;2023-03-19T07:06:17;11.30;99.90
47765;DHT22;33529;49.242;8.670;2023-03-19T07:08:44;11.30;99.90
47765;DHT22;33529;49.242;8.670;2023-03-19T07:11:12;11.30;99.90
47765;DHT22;33529;49.242;8.670;2023-03-19T07:13:39;11.30;99.90
47765;DHT22;33529;49.242;8.670;2023-03-19T07:16:07;11.30;99.90
47765;DHT22;33529;49.242;8.670;2023-03-19T07:18:34;11.50;99.90
47765;DHT22;33529;49.242;8.670;2023-03-19T07:21:01;11.60;99.90
47765;DHT22;33529;49.242;8.670;2023-03-19T07:23:29;11.70;99.90
47765;DHT22;33529;49.242;8.670;2023-03-19T07:25:58;11.80;99.90
47765;DHT22;33529;49.242;8.670;2023-03-19T07:28:25;11.90;99.90
47765;DHT22;33529;49.242;8.670;2023-03-19T07:30:52;12.10;99.90
47765;DHT22;33529;49.242;8.670;2023-03-19T07:33:20;12.10;99.90
47765;DHT22;33529;49.242;8.670;2023-03-19T07:35:47;12.20;99.90
47765;DHT22;33529;49.242;8.670;2023-03-19T07:38:14;12.30;99.90
47765;DHT22;33529;49.242;8.670;2023-03-19T07:40:41;12.30;99.90
47765;DHT22;33529;49.242;8.670;2023-03-19T07:43:20;12.40;99.90
47765;DHT22;33529;49.242;8.670;2023-03-19T07:45:47;12.40;99.90
47765;DHT22;33529;49.242;8.670;2023-03-19T07:48:14;12.40;99.90
47765;DHT22;33529;49.242;8.670;2023-03-19T07:50:41;12.50;99.90
47765;DHT22;33529;49.242;8.670;2023-03-19T07:53:08;12.60;99.90
47765;DHT22;33529;49.242;8.670;2023-03-19T07:55:35;12.60;99.90
47765;DHT22;33529;49.242;8.670;2023-03-19T07:58:04;12.60;99.90
47765;DHT22;33529;49.242;8.670;2023-03-19T08:00:31;12.60;99.90
47765;DHT22;33529;49.242;8.670;2023-03-19T08:02:58;12.50;99.90
47765;DHT22;33529;49.242;8.670;2023-03-19T08:05:25;12.40;99.90
47765;DHT22;33529;49.242;8.670;2023-03-19T08:07:52;12.50;99.90
47765;DHT22;33529;49.242;8.670;2023-03-19T08:10:19;12.50;99.90
47765;DHT22;33529;49.242;8.670;2023-03-19T08:12:47;12.60;99.90
47765;DHT22;33529;49.242;8.670;2023-03-19T08:15:14;12.60;99.90
47765;DHT22;33529;49.242;8.670;2023-03-19T08:17:41;12.70;99.90
47765;DHT22;33529;49.242;8.670;2023-03-19T08:20:13;12.70;99.90
47765;DHT22;33529;49.242;8.670;2023-03-19T08:22:41;12.80;99.90
47765;DHT22;33529;49.242;8.670;2023-03-19T08:25:09;12.80;99.90
47765;DHT22;33529;49.242;8.670;2023-03-19T08:27:36;12.90;99.90
47765;DHT22;33529;49.242;8.670;2023-03-19T08:30:04;13.00;99.90
47765;DHT22;33529;49.242;8.670;2023-03-19T08:32:31;13.10;99.90
47765;DHT22;33529;49.242;8.670;2023-03-19T08:34:58;13.20;99.90
47765;DHT22;33529;49.242;8.670;2023-03-19T08:37:25;13.30;99.90
47765;DHT22;33529;49.242;8.670;2023-03-19T08:39:52;13.40;99.90
47765;DHT22;33529;49.242;8.670;2023-03-19T08:42:19;13.50;99.90
47765;DHT22;33529;49.242;8.670;2023-03-19T08:44:47;13.50;99.90
47765;DHT22;33529;49.242;8.670;2023-03-19T08:47:14;13.60;99.90
47765;DHT22;33529;49.242;8.670;2023-03-19T08:49:41;13.70;99.90
47765;DHT22;33529;49.242;8.670;2023-03-19T08:52:08;13.90;99.90
47765;DHT22;33529;49.242;8.670;2023-03-19T08:54:35;14.00;99.90
47765;DHT22;33529;49.242;8.670;2023-03-19T08:57:03;14.00;99.90
47765;DHT22;33529;49.242;8.670;2023-03-19T08:59:30;13.90;99.90
47765;DHT22;33529;49.242;8.670;2023-03-19T09:02:00;14.00;99.90
47765;DHT22;33529;49.242;8.670;2023-03-19T09:04:27;14.10;99.90
47765;DHT22;33529;49.242;8.670;2023-03-19T09:06:55;14.10;99.90
47765;DHT22;33529;49.242;8.670;2023-03-19T09:09:23;14.20;99.90
47765;DHT22;33529;49.242;8.670;2023-03-19T09:11:50;14.20;99.90
47765;DHT22;33529;49.242;8.670;2023-03-19T09:14:17;14.20;99.90
47765;DHT22;33529;49.242;8.670;2023-03-19T09:16:45;14.30;99.90
47765;DHT22;33529;49.242;8.670;2023-03-19T09:19:12;14.40;99.90
47765;DHT22;33529;49.242;8.670;2023-03-19T09:21:40;14.60;99.90
47765;DHT22;33529;49.242;8.670;2023-03-19T09:24:07;14.80;99.90
47765;DHT22;33529;49.242;8.670;2023-03-19T09:26:33;15.00;99.90
47765;DHT22;33529;49.242;8.670;2023-03-19T09:29:01;15.10;99.90
47765;DHT22;33529;49.242;8.670;2023-03-19T09:31:29;15.10;99.90
47765;DHT22;33529;49.242;8.670;2023-03-19T09:33:56;15.10;99.90
47765;DHT22;33529;49.242;8.670;2023-03-19T09:36:23;15.10;99.90
47765;DHT22;33529;49.242;8.670;2023-03-19T09:38:49;15.30;99.90
47765;DHT22;33529;49.242;8.670;2023-03-19T09:44:31;15.40;99.90
47765;DHT22;33529;49.242;8.670;2023-03-19T09:49:38;15.10;99.90
47765;DHT22;33529;49.242;8.670;2023-03-19T09:55:02;15.30;99.90
47765;DHT22;33529;49.242;8.670;2023-03-19T09:57:32;15.50;99.90
47765;DHT22;33529;49.242;8.670;2023-03-19T10:00:04;15.70;99.90
47765;DHT22;33529;49.242;8.670;2023-03-19T10:02:39;15.90;98.80
47765;DHT22;33529;49.242;8.670;2023-03-19T10:16:19;16.80;99.50
47765;DHT22;33529;49.242;8.670;2023-03-19T10:18:50;16.80;98.70
47765;DHT22;33529;49.242;8.670;2023-03-19T10:21:26;16.80;97.60
47765;DHT22;33529;49.242;8.670;2023-03-19T10:26:32;16.30;96.90
47765;DHT22;33529;49.242;8.670;2023-03-19T10:29:09;16.30;98.80
47765;DHT22;33529;49.242;8.670;2023-03-19T10:31:45;16.30;99.00
47765;DHT22;33529;49.242;8.670;2023-03-19T10:34:34;16.40;98.70
47765;DHT22;33529;49.242;8.670;2023-03-19T10:37:22;16.30;98.80
47765;DHT22;33529;49.242;8.670;2023-03-19T10:39:56;16.40;99.50
47765;DHT22;33529;49.242;8.670;2023-03-19T10:42:41;16.50;98.70
47765;DHT22;33529;49.242;8.670;2023-03-19T10:45:26;16.60;99.70
47765;DHT22;33529;49.242;8.670;2023-03-19T10:47:55;16.70;97.10
47765;DHT22;33529;49.242;8.670;2023-03-19T10:50:30;16.70;97.30
47765;DHT22;33529;49.242;8.670;2023-03-19T10:53:20;16.70;99.00
47765;DHT22;33529;49.242;8.670;2023-03-19T10:55:58;16.70;97.90
47765;DHT22;33529;49.242;8.670;2023-03-19T10:58:27;16.80;97.70
47765;DHT22;33529;49.242;8.670;2023-03-19T11:03:36;17.20;98.50
47765;DHT22;33529;49.242;8.670;2023-03-19T11:08:56;17.60;97.40
47765;DHT22;33529;49.242;8.670;2023-03-19T11:14:20;17.80;95.60
47765;DHT22;33529;49.242;8.670;2023-03-19T11:19:34;18.00;95.80
47765;DHT22;33529;49.242;8.670;2023-03-19T11:24:32;18.00;94.60
47765;DHT22;33529;49.242;8.670;2023-03-19T11:26:59;17.90;95.70
47765;DHT22;33529;49.242;8.670;2023-03-19T11:29:28;17.70;95.90
47765;DHT22;33529;49.242;8.670;2023-03-19T11:32:11;17.80;94.60
47765;DHT22;33529;49.242;8.670;2023-03-19T11:35:02;18.00;95.80
47765;DHT22;33529;49.242;8.670;2023-03-19T11:37:55;18.00;96.30
47765;DHT22;33529;49.242;8.670;2023-03-19T11:40:42;18.10;94.80
47765;DHT22;33529;49.242;8.670;2023-03-19T11:54:05;18.40;95.50
47765;DHT22;33529;49.242;8.670;2023-03-19T11:56:49;18.60;94.10
47765;DHT22;33529;49.242;8.670;2023-03-19T11:59:34;18.60;93.90
47765;DHT22;33529;49.242;8.670;2023-03-19T12:02:12;18.40;93.30
47765;DHT22;33529;49.242;8.670;2023-03-19T12:07:47;17.80;93.90
47765;DHT22;33529;49.242;8.670;2023-03-19T12:10:27;17.80;94.10
47765;DHT22;33529;49.242;8.670;2023-03-19T12:13:24;17.70;94.60
47765;DHT22;33529;49.242;8.670;2023-03-19T12:18:47;17.90;95.10
47765;DHT22;33529;49.242;8.670;2023-03-19T12:21:34;18.10;93.10
47765;DHT22;33529;49.242;8.670;2023-03-19T12:29:51;18.10;93.20
47765;DHT22;33529;49.242;8.670;2023-03-19T12:32:45;18.10;94.40
47765;DHT22;33529;49.242;8.670;2023-03-19T12:35:23;18.10;93.60
47765;DHT22;33529;49.242;8.670;2023-03-19T12:38:12;17.90;93.60
47765;DHT22;33529;49.242;8.670;2023-03-19T12:40:57;18.00;93.50
47765;DHT22;33529;49.242;8.670;2023-03-19T12:46:06;17.80;94.00
47765;DHT22;33529;49.242;8.670;2023-03-19T12:48:41;17.70;94.90
47765;DHT22;33529;49.242;8.670;2023-03-19T12:51:12;17.60;95.10
47765;DHT22;33529;49.242;8.670;2023-03-19T12:53:58;17.70;94.10
47765;DHT22;33529;49.242;8.670;2023-03-19T12:56:56;17.50;95.30
47765;DHT22;33529;49.242;8.670;2023-03-19T12:59:47;17.40;95.20
47765;DHT22;33529;49.242;8.670;2023-03-19T13:03:15;17.30;95.00
47765;DHT22;33529;49.242;8.670;2023-03-19T13:05:42;17.10;96.00
47765;DHT22;33529;49.242;8.670;2023-03-19T13:10:47;16.80;96.60
47765;DHT22;33529;49.242;8.670;2023-03-19T13:16:09;16.70;97.30
47765;DHT22;33529;49.242;8.670;2023-03-19T13:18:49;16.70;97.50
47765;DHT22;33529;49.242;8.670;2023-03-19T13:21:22;16.50;97.30
47765;DHT22;33529;49.242;8.670;2023-03-19T13:26:35;16.20;98.10
47765;DHT22;33529;49.242;8.670;2023-03-19T13:29:18;16.20;97.40
47765;DHT22;33529;49.242;8.670;2023-03-19T13:31:45;16.30;97.00
47765;DHT22;33529;49.242;8.670;2023-03-19T13:36:44;16.20;98.00
47765;DHT22;33529;49.242;8.670;2023-03-19T13:39:17;16.10;98.00
47765;DHT22;33529;49.242;8.670;2023-03-19T13:42:33;16.00;98.20
47765;DHT22;33529;49.242;8.670;2023-03-19T13:44:52;16.00;98.50
47765;DHT22;33529;49.242;8.670;2023-03-19T13:50:17;16.00;98.40
47765;DHT22;33529;49.242;8.670;2023-03-19T13:52:51;16.00;98.50
47765;DHT22;33529;49.242;8.670;2023-03-19T13:57:59;16.20;99.20
47765;DHT22;33529;49.242;8.670;2023-03-19T14:03:28;15.90;99.90
47765;DHT22;33529;49.242;8.670;2023-03-19T14:05:57;15.70;99.90
47765;DHT22;33529;49.242;8.670;2023-03-19T14:08:31;15.50;99.90
47765;DHT22;33529;49.242;8.670;2023-03-19T14:11:00;15.40;99.90
47765;DHT22;33529;49.242;8.670;2023-03-19T14:13:32;15.30;99.90
47765;DHT22;33529;49.242;8.670;2023-03-19T14:16:25;15.30;99.90
47765;DHT22;33529;49.242;8.670;2023-03-19T14:18:55;15.40;99.90
47765;DHT22;33529;49.242;8.670;2023-03-19T14:27:25;15.70;99.90
47765;DHT22;33529;49.242;8.670;2023-03-19T14:29:55;15.80;99.90
47765;DHT22;33529;49.242;8.670;2023-03-19T14:32:33;15.90;99.90
47765;DHT22;33529;49.242;8.670;2023-03-19T14:35:03;15.90;99.90
47765;DHT22;33529;49.242;8.670;2023-03-19T14:37:45;15.90;99.90
47765;DHT22;33529;49.242;8.670;2023-03-19T14:40:29;15.80;99.90
47765;DHT22;33529;49.242;8.670;2023-03-19T14:43:07;15.70;99.90
47765;DHT22;33529;49.242;8.670;2023-03-19T14:48:19;15.40;99.90
47765;DHT22;33529;49.242;8.670;2023-03-19T14:53:52;15.40;99.90
47765;DHT22;33529;49.242;8.670;2023-03-19T14:56:29;15.40;99.90
47765;DHT22;33529;49.242;8.670;2023-03-19T14:58:57;15.30;99.90
47765;DHT22;33529;49.242;8.670;2023-03-19T15:01:31;15.30;99.90
47765;DHT22;33529;49.242;8.670;2023-03-19T15:04:00;15.30;99.90
47765;DHT22;33529;49.242;8.670;2023-03-19T15:06:36;15.20;99.90
47765;DHT22;33529;49.242;8.670;2023-03-19T15:09:27;15.30;99.90
47765;DHT22;33529;49.242;8.670;2023-03-19T15:17:32;15.30;99.90
47765;DHT22;33529;49.242;8.670;2023-03-19T15:20:19;15.20;99.90
47765;DHT22;33529;49.242;8.670;2023-03-19T15:23:00;15.10;99.90
47765;DHT22;33529;49.242;8.670;2023-03-19T15:25:27;15.10;99.90
47765;DHT22;33529;49.242;8.670;2023-03-19T15:28:12;15.10;99.90
47765;DHT22;33529;49.242;8.670;2023-03-19T15:30:40;15.00;99.90
47765;DHT22;33529;49.242;8.670;2023-03-19T15:33:35;15.00;99.90
47765;DHT22;33529;49.242;8.670;2023-03-19T15:36:18;15.10;99.90
47765;DHT22;33529;49.242;8.670;2023-03-19T15:38:49;15.10;99.90
47765;DHT22;33529;49.242;8.670;2023-03-19T15:41:19;15.20;99.90
47765;DHT22;33529;49.242;8.670;2023-03-19T15:43:47;15.30;99.90
47765;DHT22;33529;49.242;8.670;2023-03-19T15:46:19;15.40;99.90
47765;DHT22;33529;49.242;8.670;2023-03-19T15:49:27;15.50;99.90
47765;DHT22;33529;49.242;8.670;2023-03-19T15:51:58;15.60;99.90
47765;DHT22;33529;49.242;8.670;2023-03-19T15:54:26;15.70;99.90
47765;DHT22;33529;49.242;8.670;2023-03-19T15:56:54;15.80;99.90
47765;DHT22;33529;49.242;8.670;2023-03-19T15:59:23;15.80;99.90
47765;DHT22;33529;49.242;8.670;2023-03-19T16:01:57;15.80;99.90
47765;DHT22;33529;49.242;8.670;2023-03-19T16:04:26;15.80;99.90
47765;DHT22;33529;49.242;8.670;2023-03-19T16:06:56;16.00;99.90
47765;DHT22;33529;49.242;8.670;2023-03-19T16:11:56;16.30;99.90
47765;DHT22;33529;49.242;8.670;2023-03-19T16:17:08;16.30;99.90
47765;DHT22;33529;49.242;8.670;2023-03-19T16:19:37;16.30;99.90
47765;DHT22;33529;49.242;8.670;2023-03-19T16:22:16;16.10;99.90
47765;DHT22;33529;49.242;8.670;2023-03-19T16:24:45;16.00;99.90
47765;DHT22;33529;49.242;8.670;2023-03-19T16:27:14;16.00;99.90
47765;DHT22;33529;49.242;8.670;2023-03-19T16:29:45;16.00;99.90
47765;DHT22;33529;49.242;8.670;2023-03-19T16:32:20;15.90;99.90
47765;DHT22;33529;49.242;8.670;2023-03-19T16:35:11;15.80;99.90
47765;DHT22;33529;49.242;8.670;2023-03-19T16:37:40;15.60;99.90
47765;DHT22;33529;49.242;8.670;2023-03-19T16:47:55;15.30;99.90
47765;DHT22;33529;49.242;8.670;2023-03-19T16:50:31;15.00;99.90
47765;DHT22;33529;49.242;8.670;2023-03-19T16:53:00;14.90;99.90
47765;DHT22;33529;49.242;8.670;2023-03-19T16:55:33;14.90;99.90
47765;DHT22;33529;49.242;8.670;2023-03-19T17:00:38;14.40;99.90
47765;DHT22;33529;49.242;8.670;2023-03-19T17:03:24;13.90;99.90
47765;DHT22;33529;49.242;8.670;2023-03-19T17:10:27;13.30;99.90
47765;DHT22;33529;49.242;8.670;2023-03-19T17:13:02;13.10;99.90
47765;DHT22;33529;49.242;8.670;2023-03-19T17:16:04;13.10;99.90
47765;DHT22;33529;49.242;8.670;2023-03-19T17:23:12;12.90;99.90
47765;DHT22;33529;49.242;8.670;2023-03-19T17:26:45;12.90;99.90
47765;DHT22;33529;49.242;8.670;2023-03-19T17:29:50;12.90;99.90
47765;DHT22;33529;49.242;8.670;2023-03-19T17:32:21;12.90;99.90
47765;DHT22;33529;49.242;8.670;2023-03-19T17:34:51;12.80;99.90
47765;DHT22;33529;49.242;8.670;2023-03-19T17:37:18;12.80;99.90
47765;DHT22;33529;49.242;8.670;2023-03-19T17:39:45;12.70;99.90
47765;DHT22;33529;49.242;8.670;2023-03-19T17:42:23;12.60;99.90
47765;DHT22;33529;49.242;8.670;2023-03-19T17:44:50;12.60;99.90
47765;DHT22;33529;49.242;8.670;2023-03-19T17:47:17;12.50;99.90
47765;DHT22;33529;49.242;8.670;2023-03-19T17:49:44;12.30;99.90
47765;DHT22;33529;49.242;8.670;2023-03-19T17:52:16;12.20;99.90
47765;DHT22;33529;49.242;8.670;2023-03-19T17:54:43;12.10;99.90
47765;DHT22;33529;49.242;8.670;2023-03-19T17:57:14;12.00;99.90
47765;DHT22;33529;49.242;8.670;2023-03-19T17:59:41;11.90;99.90
47765;DHT22;33529;49.242;8.670;2023-03-19T18:02:23;11.80;99.90
47765;DHT22;33529;49.242;8.670;2023-03-19T18:04:50;11.70;99.90
47765;DHT22;33529;49.242;8.670;2023-03-19T18:07:18;11.60;99.90
47765;DHT22;33529;49.242;8.670;2023-03-19T18:09:45;11.60;99.90
47765;DHT22;33529;49.242;8.670;2023-03-19T18:12:11;11.50;99.90
47765;DHT22;33529;49.242;8.670;2023-03-19T18:14:38;11.40;99.90
47765;DHT22;33529;49.242;8.670;2023-03-19T18:17:05;11.30;99.90